Stehekin, WA (98852)

7:44 PM PDT on September 02, 2015 (GMT -0700)
Stone Meadow | | Change Station
CLOSE
Current Station
Personal Weather Station
Location: Winthrop, WA
Elevation: 1883 ft
Nearby Weather Stations

Elev 1883 ft 48.49 °N, 120.25 °W | Updated 4 minutes ago

Partly Cloudy
Partly Cloudy
59.0 °F
Feels Like 59.0 °F
N
7.3
Wind Variable Wind from West

Today
High -- | Low -- °F
--% Chance of Precip.
Yesterday
High -- | Low -- °F
Precip. -- in
6:21 AM 7:42 PM
Waning Gibbous, 75% visible
Pressure 29.76 in
Visibility 10.0 miles
Clouds Mostly Cloudy 11000 ft
Dew Point 33 °F
Humidity 37%
Rainfall 0.00 in
Snow Depth Not available.
UV 0 out of 12
Pollen .50 out of 12
Air Quality Not available.
Flu Activity Not available.
METAR KOMK 030153Z AUTO 20011KT 10SM BKN110 21/M02 A2977 RMK AO2 SLP077 T02111022
Pressure 29.76 in
Visibility 10.0 miles
Clouds Mostly Cloudy 11000 ft
Dew Point 33 °F
Humidity 37%
Rainfall 0.00 in
Snow Depth Not available.
UV 0 out of 12
Pollen .50 out of 12
Air Quality Not available.
Flu Activity Not available.
METAR KOMK 030153Z AUTO 20011KT 10SM BKN110 21/M02 A2977 RMK AO2 SLP077 T02111022

10-Day Weather Forecast

×

Almanac

Astronomy

Sep. 02, 2015 Rise Set
Actual Time
Civil Twilight
Nautical Twilight
Astronomical Twilight
Moon
Length of Visible Light
Length of Day
Tomorrow will be .
, % of the Moon is Illuminated

Today's Extremes

State Highs State Lows

Community

WunderPhotos

Upload Photos

1,851,879 photos uploaded!

WunderBlogs® & News

Nearby

Air Quality

  Air Quality AQ Index Pollutant
Not available.

Snow Depth

Station Depth Elevation

Earthquake Activity

City Distance Mag. Time & Date
Minimum magnitude displayed is 2.5.

Coastal Water Temperatures

Place Temperature

Stations

Nearby Weather Stations

Station Location Temp. Windchill Dew Point Humidity Wind Precip. Elev Updated Type